createdAt,value
2018-09-13T00:00:12.117Z,101877.23
2018-09-13T00:01:17.496Z,101876.93
2018-09-13T00:02:22.898Z,101873.90
2018-09-13T00:03:28.276Z,101877.69
2018-09-13T00:04:33.733Z,101876.75
2018-09-13T00:05:39.148Z,101875.41
2018-09-13T00:06:44.593Z,101872.80
2018-09-13T00:07:50.085Z,101873.19
2018-09-13T00:08:55.545Z,101867.64
2018-09-13T00:10:01.498Z,101875.38
2018-09-13T00:11:07.441Z,101871.54
2018-09-13T00:12:13.012Z,101871.00
2018-09-13T00:13:18.397Z,101867.13
2018-09-13T00:14:23.901Z,101866.26
2018-09-13T00:15:29.402Z,101866.68
2018-09-13T00:16:34.893Z,101869.29
2018-09-13T00:17:40.328Z,101871.90
2018-09-13T00:18:45.856Z,101867.64
2018-09-13T00:19:51.582Z,101866.70
2018-09-13T00:20:57.129Z,101867.52
2018-09-13T00:22:02.616Z,101863.27
2018-09-13T00:23:08.758Z,101867.97
2018-09-13T00:24:14.229Z,101870.13
2018-09-13T00:25:19.650Z,101865.88
2018-09-13T00:26:25.045Z,101871.03
2018-09-13T00:27:30.438Z,101874.47
2018-09-13T00:28:35.891Z,101867.19
2018-09-13T00:29:41.312Z,101866.38
2018-09-13T00:30:46.729Z,101868.15
2018-09-13T00:31:52.128Z,101873.67
2018-09-13T00:32:59.911Z,101867.25
2018-09-13T00:34:05.411Z,101872.52
2018-09-13T00:35:10.768Z,101875.44
2018-09-13T00:36:16.180Z,101874.66
2018-09-13T00:37:21.593Z,101872.97
2018-09-13T00:38:27.041Z,101868.69
2018-09-13T00:39:32.439Z,101870.33
2018-09-13T00:40:37.866Z,101865.15
2018-09-13T00:41:43.312Z,101865.59
2018-09-13T00:42:48.736Z,101863.47
2018-09-13T00:43:54.231Z,101866.91
2018-09-13T00:44:59.693Z,101861.43
2018-09-13T00:46:05.217Z,101864.88
2018-09-13T00:47:12.951Z,101864.54
2018-09-13T00:48:18.493Z,101864.54
2018-09-13T00:49:24.006Z,101865.32
2018-09-13T00:50:29.435Z,101862.02
2018-09-13T00:51:35.197Z,101856.02
2018-09-13T00:52:40.701Z,101857.80
2018-09-13T00:53:46.097Z,101861.23
2018-09-13T00:54:51.517Z,101858.33
2018-09-13T00:55:57.009Z,101856.56
2018-09-13T00:57:02.705Z,101856.22
2018-09-13T00:58:08.116Z,101853.67
2018-09-13T00:59:13.526Z,101857.18
2018-09-13T01:00:18.996Z,101858.55
2018-09-13T01:01:24.376Z,101856.42
2018-09-13T01:02:29.960Z,101853.92
2018-09-13T01:03:35.367Z,101852.66
2018-09-13T01:04:40.768Z,101850.17
2018-09-13T01:05:46.212Z,101851.55
2018-09-13T01:06:51.662Z,101851.99
2018-09-13T01:07:57.256Z,101854.12
2018-09-13T01:09:02.684Z,101854.65
2018-09-13T01:10:08.128Z,101855.55
2018-09-13T01:11:13.549Z,101853.78
2018-09-13T01:12:19.037Z,101851.70
2018-09-13T01:13:25.061Z,101851.67
2018-09-13T01:14:30.500Z,101849.96
2018-09-13T01:15:35.889Z,101851.67
2018-09-13T01:16:41.328Z,101847.57
2018-09-13T01:17:46.798Z,101848.89
2018-09-13T01:18:52.317Z,101844.58
2018-09-13T01:19:57.773Z,101851.44
2018-09-13T01:21:03.312Z,101854.09
2018-09-13T01:22:08.828Z,101850.26
2018-09-13T01:23:14.264Z,101849.39
2018-09-13T01:24:19.694Z,101843.37
2018-09-13T01:25:25.185Z,101842.16
2018-09-13T01:26:30.657Z,101839.08
2018-09-13T01:27:36.073Z,101835.67
2018-09-13T01:28:41.520Z,101836.09
2018-09-13T01:29:46.932Z,101835.28
2018-09-13T01:30:52.541Z,101835.64
2018-09-13T01:31:58.213Z,101841.24
2018-09-13T01:33:03.748Z,101839.98
2018-09-13T01:34:09.202Z,101835.67
2018-09-13T01:35:14.644Z,101838.69
2018-09-13T01:36:20.278Z,101839.08
2018-09-13T01:37:25.789Z,101839.98
2018-09-13T01:38:31.180Z,101838.27
2018-09-13T01:39:36.610Z,101831.86
2018-09-13T01:40:41.988Z,101833.22
2018-09-13T01:41:47.392Z,101840.61
2018-09-13T01:42:52.823Z,101838.91
2018-09-13T01:43:58.272Z,101838.42
2018-09-13T01:45:03.734Z,101833.25
2018-09-13T01:46:09.162Z,101834.48
2018-09-13T01:47:14.589Z,101830.20
2018-09-13T01:48:20.029Z,101825.50
2018-09-13T01:49:25.735Z,101824.70
2018-09-13T01:50:31.336Z,101824.70
2018-09-13T01:51:36.752Z,101829.44
2018-09-13T01:52:42.140Z,101825.59
2018-09-13T01:53:47.532Z,101827.76
2018-09-13T01:54:53.229Z,101829.94
2018-09-13T01:55:58.708Z,101824.81
2018-09-13T01:57:05.008Z,101825.28
2018-09-13T01:58:10.524Z,101818.00
2018-09-13T01:59:15.902Z,101821.87
2018-09-13T02:00:21.427Z,101818.48
2018-09-13T02:01:26.898Z,101817.14
2018-09-13T02:02:32.283Z,101816.67
2018-09-13T02:03:37.679Z,101820.05
2018-09-13T02:04:43.078Z,101819.58
2018-09-13T02:05:48.519Z,101821.69
2018-09-13T02:06:54.177Z,101830.25
2018-09-13T02:07:59.612Z,101824.62
2018-09-13T02:09:07.166Z,101827.55
2018-09-13T02:10:12.581Z,101825.34
2018-09-13T02:11:18.342Z,101826.98
2018-09-13T02:12:23.789Z,101824.41
2018-09-13T02:13:29.236Z,101826.65
2018-09-13T02:14:34.600Z,101821.11
2018-09-13T02:15:40.025Z,101820.19
2018-09-13T02:16:45.459Z,101828.73
2018-09-13T02:17:50.821Z,101821.78
2018-09-13T02:18:56.208Z,101834.19
2018-09-13T02:20:01.595Z,101817.89
2018-09-13T02:21:07.196Z,101825.28
2018-09-13T02:22:12.581Z,101824.84
2018-09-13T02:23:18.224Z,101815.29
2018-09-13T02:24:23.594Z,101821.28
2018-09-13T02:25:28.988Z,101817.92
2018-09-13T02:26:34.389Z,101818.39
2018-09-13T02:27:39.850Z,101819.63
2018-09-13T02:28:45.297Z,101820.11
2018-09-13T02:29:50.717Z,101819.16
2018-09-13T02:30:56.124Z,101816.97
2018-09-13T02:32:01.667Z,101818.66
2018-09-13T02:33:07.273Z,101820.39
2018-09-13T02:34:12.691Z,101814.77
2018-09-13T02:35:18.201Z,101815.10
2018-09-13T02:36:23.604Z,101811.29
2018-09-13T02:37:29.096Z,101810.45
2018-09-13T02:38:34.509Z,101808.84
2018-09-13T02:39:39.884Z,101810.19
2018-09-13T02:40:45.397Z,101808.06
2018-09-13T02:41:50.880Z,101811.88
2018-09-13T02:42:56.417Z,101806.35
2018-09-13T02:44:01.821Z,101808.06
2018-09-13T02:45:07.360Z,101807.22
2018-09-13T02:46:13.126Z,101807.27
2018-09-13T02:47:18.488Z,101810.30
2018-09-13T02:48:23.900Z,101812.48
2018-09-13T02:49:29.377Z,101809.83
2018-09-13T02:50:34.812Z,101807.64
2018-09-13T02:51:40.228Z,101807.66
2018-09-13T02:52:45.689Z,101808.12
2018-09-13T02:53:51.164Z,101813.24
2018-09-13T02:54:56.617Z,101808.01
2018-09-13T02:56:02.053Z,101805.54
2018-09-13T02:57:07.484Z,101807.75
2018-09-13T02:58:12.920Z,101805.98
2018-09-13T02:59:18.369Z,101810.33
2018-09-13T03:00:23.842Z,101803.08
2018-09-13T03:01:29.293Z,101805.20
2018-09-13T03:02:34.688Z,101809.06
2018-09-13T03:03:40.146Z,101806.04
2018-09-13T03:04:45.598Z,101812.95
2018-09-13T03:05:51.000Z,101808.78
2018-09-13T03:06:56.480Z,101807.88
2018-09-13T03:08:01.865Z,101813.88
2018-09-13T03:09:11.297Z,101809.70
2018-09-13T03:10:16.782Z,101805.08
2018-09-13T03:11:22.197Z,101804.20
2018-09-13T03:12:27.932Z,101808.54
2018-09-13T03:13:33.338Z,101806.41
2018-09-13T03:14:38.749Z,101805.98
2018-09-13T03:15:44.194Z,101804.28
2018-09-13T03:16:49.610Z,101802.58
2018-09-13T03:17:55.163Z,101808.56
2018-09-13T03:19:00.599Z,101808.97
2018-09-13T03:20:06.140Z,101808.98
2018-09-13T03:21:11.641Z,101808.17
2018-09-13T03:22:17.138Z,101809.94
2018-09-13T03:23:22.617Z,101814.64
2018-09-13T03:24:28.218Z,101812.52
2018-09-13T03:25:33.657Z,101810.77
2018-09-13T03:26:39.132Z,101814.00
2018-09-13T03:27:44.917Z,101814.08
2018-09-13T03:28:50.447Z,101814.16
2018-09-13T03:29:55.901Z,101813.69
2018-09-13T03:31:01.358Z,101810.70
2018-09-13T03:32:06.769Z,101809.44
2018-09-13T03:33:12.361Z,101814.20
2018-09-13T03:34:17.801Z,101807.34
2018-09-13T03:35:23.379Z,101810.30
2018-09-13T03:36:28.857Z,101806.92
2018-09-13T03:37:34.269Z,101803.97
2018-09-13T03:38:39.777Z,101804.10
2018-09-13T03:39:45.279Z,101807.23
2018-09-13T03:40:50.808Z,101805.06
2018-09-13T03:41:56.561Z,101803.35
2018-09-13T03:43:02.005Z,101810.25
2018-09-13T03:44:07.665Z,101795.66
2018-09-13T03:45:13.060Z,101805.95
2018-09-13T03:46:20.245Z,101799.52
2018-09-13T03:47:25.869Z,101802.58
2018-09-13T03:48:31.313Z,101803.05
2018-09-13T03:49:36.820Z,101803.13
2018-09-13T03:50:42.252Z,101804.80
2018-09-13T03:51:47.721Z,101807.01
2018-09-13T03:52:53.159Z,101807.50
2018-09-13T03:53:58.669Z,101806.21
2018-09-13T03:55:04.206Z,101804.95
2018-09-13T03:56:09.733Z,101804.92
2018-09-13T03:57:15.180Z,101807.48
2018-09-13T03:58:20.612Z,101810.11
2018-09-13T03:59:26.177Z,101805.44
2018-09-13T04:00:31.586Z,101807.59
2018-09-13T04:01:36.996Z,101804.19
2018-09-13T04:02:42.417Z,101808.09
2018-09-13T04:03:47.915Z,101808.56
2018-09-13T04:04:53.643Z,101808.58
2018-09-13T04:05:59.133Z,101807.74
2018-09-13T04:07:04.524Z,101803.52
2018-09-13T04:08:10.141Z,101807.52
2018-09-13T04:09:15.661Z,101806.65
2018-09-13T04:10:21.131Z,101809.22
2018-09-13T04:11:26.569Z,101812.67
2018-09-13T04:12:31.978Z,101808.38
2018-09-13T04:13:37.481Z,101805.36
2018-09-13T04:14:42.954Z,101813.16
2018-09-13T04:15:48.441Z,101812.73
2018-09-13T04:16:53.877Z,101809.75
2018-09-13T04:17:59.322Z,101815.72
2018-09-13T04:19:04.797Z,101808.92
2018-09-13T04:20:10.256Z,101812.84
2018-09-13T04:21:15.651Z,101811.18
2018-09-13T04:22:21.085Z,101814.57
2018-09-13T04:23:26.545Z,101811.20
2018-09-13T04:24:32.109Z,101808.66
2018-09-13T04:25:37.533Z,101816.41
2018-09-13T04:26:42.909Z,101809.58
2018-09-13T04:27:48.513Z,101815.66
2018-09-13T04:28:53.921Z,101810.63
2018-09-13T04:29:59.417Z,101813.78
2018-09-13T04:31:04.940Z,101809.61
2018-09-13T04:32:10.393Z,101808.27
2018-09-13T04:33:16.201Z,101810.75
2018-09-13T04:34:21.579Z,101807.38
2018-09-13T04:35:26.951Z,101813.41
2018-09-13T04:36:32.439Z,101813.48
2018-09-13T04:37:37.909Z,101811.82
2018-09-13T04:38:43.360Z,101812.27
2018-09-13T04:39:48.785Z,101813.07
2018-09-13T04:40:54.221Z,101807.97
2018-09-13T04:41:59.717Z,101811.44
2018-09-13T04:43:05.304Z,101811.02
2018-09-13T04:44:10.797Z,101811.44
2018-09-13T04:45:16.260Z,101812.27
2018-09-13T04:46:21.681Z,101811.00
2018-09-13T04:47:27.065Z,101812.30
2018-09-13T04:48:33.416Z,101807.64
2018-09-13T04:49:38.885Z,101812.33
2018-09-13T04:50:44.493Z,101806.78
2018-09-13T04:51:50.299Z,101808.48
2018-09-13T04:52:55.698Z,101806.40
2018-09-13T04:54:01.097Z,101812.41
2018-09-13T04:55:06.603Z,101803.92
2018-09-13T04:56:12.117Z,101805.20
2018-09-13T04:57:17.565Z,101805.21
2018-09-13T04:58:23.024Z,101802.67
2018-09-13T04:59:28.401Z,101810.34
2018-09-13T05:00:33.800Z,101806.13
2018-09-13T05:01:40.917Z,101805.72
2018-09-13T05:02:46.303Z,101803.23
2018-09-13T05:03:51.688Z,101808.39
2018-09-13T05:04:57.098Z,101799.83
2018-09-13T05:06:02.495Z,101801.11
2018-09-13T05:07:08.038Z,101800.21
2018-09-13T05:08:13.448Z,101805.36
2018-09-13T05:09:18.852Z,101804.05
2018-09-13T05:10:24.280Z,101803.67
2018-09-13T05:11:29.801Z,101795.52
2018-09-13T05:12:35.284Z,101797.17
2018-09-13T05:13:40.737Z,101796.36
2018-09-13T05:14:46.197Z,101800.70
2018-09-13T05:15:51.656Z,101797.20
2018-09-13T05:16:57.214Z,101802.72
2018-09-13T05:18:02.580Z,101800.18
2018-09-13T05:19:08.355Z,101799.81
2018-09-13T05:20:13.757Z,101797.62
2018-09-13T05:21:19.265Z,101806.23
2018-09-13T05:22:24.712Z,101804.09
2018-09-13T05:23:30.125Z,101805.80
2018-09-13T05:24:35.610Z,101800.71
2018-09-13T05:25:40.998Z,101808.03
2018-09-13T05:26:46.476Z,101802.47
2018-09-13T05:27:52.010Z,101806.77
2018-09-13T05:28:57.509Z,101802.57
2018-09-13T05:30:03.103Z,101811.11
2018-09-13T05:31:09.054Z,101808.98
2018-09-13T05:32:14.520Z,101805.59
2018-09-13T05:33:19.985Z,101807.80
2018-09-13T05:34:25.384Z,101807.36
2018-09-13T05:35:30.760Z,101804.81
2018-09-13T05:36:36.213Z,101808.63
2018-09-13T05:37:41.629Z,101805.23
2018-09-13T05:38:47.050Z,101811.62
2018-09-13T05:39:52.441Z,101813.68
2018-09-13T05:40:57.908Z,101812.84
2018-09-13T05:42:03.704Z,101813.30
2018-09-13T05:43:09.216Z,101807.67
2018-09-13T05:44:15.070Z,101813.63
2018-09-13T05:45:20.505Z,101812.34
2018-09-13T05:46:25.952Z,101813.20
2018-09-13T05:47:31.420Z,101808.00
2018-09-13T05:48:36.989Z,101805.84
2018-09-13T05:49:42.640Z,101804.99
2018-09-13T05:50:48.086Z,101810.10
2018-09-13T05:51:53.729Z,101809.23
2018-09-13T05:52:59.209Z,101808.39
2018-09-13T05:54:04.713Z,101811.32
2018-09-13T05:55:10.146Z,101813.89
2018-09-13T05:56:15.561Z,101819.41
2018-09-13T05:57:21.093Z,101813.83
2018-09-13T05:58:26.569Z,101817.21
2018-09-13T05:59:31.979Z,101820.59
2018-09-13T06:00:37.397Z,101816.28
2018-09-13T06:01:42.853Z,101825.19
2018-09-13T06:02:48.253Z,101822.63
2018-09-13T06:03:53.706Z,101826.42
2018-09-13T06:04:59.104Z,101826.38
2018-09-13T06:06:04.537Z,101832.34
2018-09-13T06:07:09.949Z,101831.45
2018-09-13T06:08:15.475Z,101828.89
2018-09-13T06:09:20.885Z,101824.98
2018-09-13T06:10:26.361Z,101835.20
2018-09-13T06:11:31.828Z,101834.34
2018-09-13T06:12:37.344Z,101830.50
2018-09-13T06:13:42.824Z,101834.34
2018-09-13T06:14:48.414Z,101825.31
2018-09-13T06:15:53.812Z,101826.05
2018-09-13T06:16:59.273Z,101827.88
2018-09-13T06:18:04.828Z,101832.94
2018-09-13T06:19:10.383Z,101832.55
2018-09-13T06:20:15.889Z,101833.84
2018-09-13T06:21:21.317Z,101829.53
2018-09-13T06:22:26.804Z,101829.91
2018-09-13T06:23:32.225Z,101828.62
2018-09-13T06:24:37.861Z,101830.77
2018-09-13T06:25:43.350Z,101831.50
2018-09-13T06:26:48.811Z,101825.50
2018-09-13T06:27:54.189Z,101827.25
2018-09-13T06:28:59.604Z,101827.16
2018-09-13T06:30:05.236Z,101828.91
2018-09-13T06:31:10.686Z,101827.18
2018-09-13T06:32:16.305Z,101824.59
2018-09-13T06:33:21.798Z,101828.03
2018-09-13T06:34:27.273Z,101829.70
2018-09-13T06:35:32.741Z,101827.91
2018-09-13T06:36:38.485Z,101823.27
2018-09-13T06:37:44.052Z,101824.98
2018-09-13T06:38:49.504Z,101825.34
2018-09-13T06:39:55.117Z,101826.64
2018-09-13T06:41:00.564Z,101828.30
2018-09-13T06:42:06.018Z,101829.09
2018-09-13T06:43:11.573Z,101826.52
2018-09-13T06:44:17.014Z,101827.78
2018-09-13T06:45:22.428Z,101827.89
2018-09-13T06:46:27.851Z,101828.28
2018-09-13T06:47:33.289Z,101825.66
2018-09-13T06:48:38.733Z,101822.16
2018-09-13T06:49:44.115Z,101822.53
2018-09-13T06:50:49.657Z,101824.15
2018-09-13T06:51:55.061Z,101820.60
2018-09-13T06:53:00.474Z,101823.60
2018-09-13T06:54:06.151Z,101824.80
2018-09-13T06:55:11.845Z,101825.11
2018-09-13T06:56:17.322Z,101832.41
2018-09-13T06:57:23.101Z,101831.83
2018-09-13T06:58:28.582Z,101833.42
2018-09-13T06:59:34.022Z,101830.33
2018-09-13T07:00:39.530Z,101828.90
2018-09-13T07:01:44.961Z,101828.86
2018-09-13T07:02:50.337Z,101827.09
2018-09-13T07:03:55.864Z,101829.17
2018-09-13T07:05:01.322Z,101830.29
2018-09-13T07:06:07.169Z,101830.72
2018-09-13T07:07:12.645Z,101833.36
2018-09-13T07:08:18.078Z,101829.38
2018-09-13T07:09:23.465Z,101830.11
2018-09-13T07:10:28.972Z,101828.85
2018-09-13T07:11:34.398Z,101827.52
2018-09-13T07:12:39.803Z,101826.23
2018-09-13T07:13:45.281Z,101826.97
2018-09-13T07:14:50.812Z,101827.63
2018-09-13T07:15:56.176Z,101828.44
2018-09-13T07:17:01.688Z,101827.09
2018-09-13T07:18:07.756Z,101829.98
2018-09-13T07:19:13.205Z,101826.41
2018-09-13T07:20:18.647Z,101826.27
2018-09-13T07:21:24.070Z,101833.84
2018-09-13T07:22:29.572Z,101827.77
2018-09-13T07:23:35.089Z,101827.64
2018-09-13T07:24:40.525Z,101831.03
2018-09-13T07:25:45.987Z,101834.91
2018-09-13T07:26:51.428Z,101829.33
2018-09-13T07:27:56.805Z,101833.61
2018-09-13T07:29:02.346Z,101831.09
2018-09-13T07:30:07.936Z,101834.45
2018-09-13T07:31:13.442Z,101830.87
2018-09-13T07:32:18.868Z,101833.33
2018-09-13T07:33:24.278Z,101825.14
2018-09-13T07:34:29.808Z,101830.02
2018-09-13T07:35:35.270Z,101830.87
2018-09-13T07:36:40.798Z,101834.19
2018-09-13T07:37:46.255Z,101832.28
2018-09-13T07:38:52.124Z,101836.30
2018-09-13T07:39:57.560Z,101829.73
2018-09-13T07:41:03.011Z,101836.31
2018-09-13T07:42:08.481Z,101836.61
2018-09-13T07:43:13.970Z,101835.20
2018-09-13T07:44:19.456Z,101829.87
2018-09-13T07:45:24.957Z,101838.04
2018-09-13T07:46:30.783Z,101842.97
2018-09-13T07:47:36.166Z,101841.42
2018-09-13T07:48:41.577Z,101843.58
2018-09-13T07:49:47.124Z,101840.64
2018-09-13T07:50:52.458Z,101845.26
2018-09-13T07:51:57.885Z,101841.28
2018-09-13T07:53:03.465Z,101842.38
2018-09-13T07:54:08.980Z,101842.77
2018-09-13T07:55:14.488Z,101845.07
2018-09-13T07:56:19.931Z,101845.03
2018-09-13T07:57:25.317Z,101844.13
2018-09-13T07:58:30.769Z,101849.02
2018-09-13T07:59:36.187Z,101839.17
2018-09-13T08:00:41.697Z,101845.00
2018-09-13T08:01:47.108Z,101850.97
2018-09-13T08:02:52.525Z,101841.34
2018-09-13T08:03:58.140Z,101844.58
2018-09-13T08:05:03.881Z,101847.05
2018-09-13T08:06:09.841Z,101846.11
2018-09-13T08:07:15.257Z,101845.27
2018-09-13T08:08:20.750Z,101841.22
2018-09-13T08:09:26.149Z,101842.75
2018-09-13T08:10:31.606Z,101848.19
2018-09-13T08:11:37.077Z,101842.57
2018-09-13T08:12:42.426Z,101842.91
2018-09-13T08:13:47.832Z,101848.70
2018-09-13T08:14:53.232Z,101838.70
2018-09-13T08:15:58.655Z,101838.89
2018-09-13T08:17:04.109Z,101845.23
2018-09-13T08:18:09.674Z,101845.58
2018-09-13T08:19:15.181Z,101841.55
2018-09-13T08:20:20.696Z,101847.20
2018-09-13T08:21:26.148Z,101853.92
2018-09-13T08:22:31.508Z,101846.96
2018-09-13T08:23:36.933Z,101849.63
2018-09-13T08:24:42.493Z,101856.97
2018-09-13T08:25:47.973Z,101854.59
2018-09-13T08:26:53.449Z,101850.64
2018-09-13T08:27:58.922Z,101858.48
2018-09-13T08:29:04.442Z,101856.16
2018-09-13T08:30:09.945Z,101861.86
2018-09-13T08:31:15.381Z,101862.73
2018-09-13T08:32:20.844Z,101864.08
2018-09-13T08:33:26.410Z,101863.53
2018-09-13T08:34:31.770Z,101862.38
2018-09-13T08:35:37.229Z,101862.79
2018-09-13T08:36:42.687Z,101868.11
2018-09-13T08:37:48.128Z,101870.70
2018-09-13T08:38:53.623Z,101867.97
2018-09-13T08:39:59.100Z,101865.80
2018-09-13T08:41:04.529Z,101865.92
2018-09-13T08:42:09.978Z,101862.67
2018-09-13T08:43:15.704Z,101869.81
2018-09-13T08:44:21.048Z,101864.09
2018-09-13T08:45:26.489Z,101862.64
2018-09-13T08:46:31.941Z,101861.18
2018-09-13T08:47:37.463Z,101871.16
2018-09-13T08:48:42.847Z,101864.64
2018-09-13T08:49:48.265Z,101859.68
2018-09-13T08:50:53.738Z,101865.40
2018-09-13T08:51:59.163Z,101862.39
2018-09-13T08:53:04.600Z,101867.02
2018-09-13T08:54:10.145Z,101865.23
2018-09-13T08:55:15.713Z,101861.22
2018-09-13T08:56:21.161Z,101859.55
2018-09-13T08:57:26.546Z,101859.88
2018-09-13T08:58:31.946Z,101859.42
2018-09-13T08:59:37.781Z,101860.43
2018-09-13T09:00:43.206Z,101855.75
2018-09-13T09:01:48.676Z,101855.62
2018-09-13T09:02:54.129Z,101852.36
2018-09-13T09:03:59.510Z,101856.20
2018-09-13T09:05:05.176Z,101856.57
2018-09-13T09:06:10.667Z,101857.11
2018-09-13T09:07:16.183Z,101853.36
2018-09-13T09:08:21.590Z,101852.09
2018-09-13T09:09:27.038Z,101854.87
2018-09-13T09:10:32.536Z,101858.84
2018-09-13T09:11:37.945Z,101860.45
2018-09-13T09:12:43.321Z,101857.13
2018-09-13T09:13:49.086Z,101855.95
2018-09-13T09:14:54.508Z,101862.30
2018-09-13T09:15:59.956Z,101854.84
2018-09-13T09:17:05.363Z,101850.33
2018-09-13T09:18:11.012Z,101846.72
2018-09-13T09:19:16.429Z,101853.62
2018-09-13T09:20:21.964Z,101842.14
2018-09-13T09:21:27.441Z,101841.59
2018-09-13T09:22:32.892Z,101839.23
2018-09-13T09:23:38.329Z,101848.30
2018-09-13T09:24:43.750Z,101842.22
2018-09-13T09:25:49.136Z,101835.53
2018-09-13T09:26:54.625Z,101835.62
2018-09-13T09:28:00.068Z,101843.25
2018-09-13T09:29:05.672Z,101837.80
2018-09-13T09:30:11.021Z,101842.48
2018-09-13T09:31:16.481Z,101837.45
2018-09-13T09:32:21.926Z,101841.66
2018-09-13T09:33:27.384Z,101841.20
2018-09-13T09:34:32.957Z,101841.26
2018-09-13T09:35:38.464Z,101839.59
2018-09-13T09:36:43.982Z,101839.33
2018-09-13T09:37:49.389Z,101842.41
2018-09-13T09:38:54.805Z,101849.81
2018-09-13T09:40:00.203Z,101845.93
2018-09-13T09:41:05.625Z,101846.91
2018-09-13T09:42:11.081Z,101846.23
2018-09-13T09:43:16.481Z,101846.75
2018-09-13T09:44:21.982Z,101845.48
2018-09-13T09:45:27.381Z,101850.95
2018-09-13T09:46:32.814Z,101849.15
2018-09-13T09:47:38.278Z,101845.26
2018-09-13T09:48:43.656Z,101849.52
2018-09-13T09:49:49.062Z,101850.52
2018-09-13T09:50:54.506Z,101848.05
2018-09-13T09:51:59.955Z,101850.89
2018-09-13T09:53:05.812Z,101850.70
2018-09-13T09:54:11.308Z,101849.19
2018-09-13T09:55:20.825Z,101845.20
2018-09-13T09:56:26.463Z,101851.85
2018-09-13T09:57:31.941Z,101853.87
2018-09-13T09:58:37.342Z,101849.98
2018-09-13T09:59:42.746Z,101851.69
2018-09-13T10:00:53.393Z,101853.87
2018-09-13T10:02:04.080Z,101849.81
2018-09-13T10:03:09.507Z,101845.18
2018-09-13T10:04:14.961Z,101846.99
2018-09-13T10:05:20.473Z,101849.09
2018-09-13T10:06:25.915Z,101845.26
2018-09-13T10:07:31.388Z,101841.47
2018-09-13T10:08:36.829Z,101840.24
2018-09-13T10:09:43.109Z,101847.70
2018-09-13T10:10:48.465Z,101837.79
2018-09-13T10:11:53.946Z,101843.66
2018-09-13T10:12:59.356Z,101845.72
2018-09-13T10:14:05.229Z,101846.55
2018-09-13T10:15:15.865Z,101841.02
2018-09-13T10:16:26.354Z,101842.64
2018-09-13T10:17:36.912Z,101839.28
2018-09-13T10:18:44.585Z,101841.09
2018-09-13T10:19:55.133Z,101842.05
2018-09-13T10:21:05.630Z,101838.27
2018-09-13T10:22:16.080Z,101841.86
2018-09-13T10:23:27.672Z,101844.14
2018-09-13T10:24:38.216Z,101844.90
2018-09-13T10:25:48.823Z,101842.23
2018-09-13T10:26:59.536Z,101836.10
2018-09-13T10:28:10.185Z,101836.16
2018-09-13T10:29:21.560Z,101837.78
2018-09-13T10:30:32.125Z,101830.30
2018-09-13T10:31:42.992Z,101832.47
2018-09-13T10:32:53.592Z,101836.94
2018-09-13T10:34:04.252Z,101836.58
2018-09-13T10:35:14.889Z,101839.59
2018-09-13T10:36:25.680Z,101831.74
2018-09-13T10:37:36.230Z,101831.74
2018-09-13T10:38:46.960Z,101826.23
2018-09-13T10:39:57.516Z,101825.23
2018-09-13T10:41:08.310Z,101828.86
2018-09-13T10:42:18.868Z,101829.73
2018-09-13T10:43:29.576Z,101830.54
2018-09-13T10:44:40.110Z,101828.43
2018-09-13T10:45:50.731Z,101831.98
2018-09-13T10:47:01.213Z,101823.28
2018-09-13T10:48:12.215Z,101817.69
2018-09-13T10:49:22.936Z,101818.29
2018-09-13T10:50:31.506Z,101817.83
2018-09-13T10:51:42.249Z,101820.86
2018-09-13T10:52:50.481Z,101815.97
2018-09-13T10:54:01.918Z,101818.30
2018-09-13T10:55:07.770Z,101816.56
2018-09-13T10:56:13.597Z,101816.19
2018-09-13T10:57:24.183Z,101813.19
2018-09-13T10:58:29.915Z,101811.48
2018-09-13T10:59:35.289Z,101810.42
2018-09-13T11:00:40.705Z,101812.33
2018-09-13T11:01:46.129Z,101816.13
2018-09-13T11:02:51.720Z,101814.12
2018-09-13T11:03:57.234Z,101813.22
2018-09-13T11:05:02.648Z,101814.45
2018-09-13T11:06:08.517Z,101809.37
2018-09-13T11:07:13.941Z,101807.64
2018-09-13T11:08:19.454Z,101808.83
2018-09-13T11:09:24.992Z,101806.44
2018-09-13T11:10:30.445Z,101810.43
2018-09-13T11:11:35.963Z,101812.17
2018-09-13T11:12:48.112Z,101811.18
2018-09-13T11:13:57.711Z,101803.14
2018-09-13T11:15:06.371Z,101805.29
2018-09-13T11:16:11.820Z,101803.53
2018-09-13T11:17:17.321Z,101806.63
2018-09-13T11:18:22.764Z,101809.56
2018-09-13T11:19:28.108Z,101804.44
2018-09-13T11:20:34.044Z,101801.48
2018-09-13T11:21:39.525Z,101797.48
2018-09-13T11:22:45.045Z,101803.75
2018-09-13T11:23:50.527Z,101807.78
2018-09-13T11:24:55.960Z,101806.77
2018-09-13T11:26:01.389Z,101807.23
2018-09-13T11:27:06.940Z,101802.45
2018-09-13T11:28:12.836Z,101799.98
2018-09-13T11:29:18.396Z,101802.28
2018-09-13T11:30:24.102Z,101800.81
2018-09-13T11:31:29.558Z,101799.30
2018-09-13T11:32:35.052Z,101796.70
2018-09-13T11:33:40.795Z,101792.99
2018-09-13T11:34:46.251Z,101799.25
2018-09-13T11:35:51.792Z,101793.75
2018-09-13T11:36:57.192Z,101790.98
2018-09-13T11:38:02.620Z,101791.62
2018-09-13T11:39:11.426Z,101794.72
2018-09-13T11:40:17.022Z,101798.38
2018-09-13T11:41:22.357Z,101795.45
2018-09-13T11:42:27.728Z,101794.66
2018-09-13T11:43:33.201Z,101800.27
2018-09-13T11:44:38.801Z,101793.78
2018-09-13T11:45:44.232Z,101796.16
2018-09-13T11:46:49.620Z,101791.78
2018-09-13T11:47:55.069Z,101796.83
2018-09-13T11:49:00.497Z,101789.45
2018-09-13T11:50:06.576Z,101797.53
2018-09-13T11:51:12.174Z,101793.86
2018-09-13T11:52:17.601Z,101791.62
2018-09-13T11:53:23.141Z,101789.62
2018-09-13T11:54:28.714Z,101787.91
2018-09-13T11:55:37.275Z,101793.22
2018-09-13T11:56:42.688Z,101790.91
2018-09-13T11:57:48.117Z,101791.41
2018-09-13T11:58:53.513Z,101789.80
2018-09-13T11:59:58.893Z,101792.77
2018-09-13T12:01:04.428Z,101792.77
2018-09-13T12:02:09.842Z,101783.00
2018-09-13T12:03:15.467Z,101784.95
2018-09-13T12:04:21.058Z,101780.84
2018-09-13T12:05:26.513Z,101788.91
2018-09-13T12:06:32.080Z,101788.67
2018-09-13T12:07:37.484Z,101786.02
2018-09-13T12:08:42.876Z,101784.15
2018-09-13T12:09:48.291Z,101779.11
2018-09-13T12:10:53.745Z,101784.68
2018-09-13T12:11:59.145Z,101787.98
2018-09-13T12:13:04.637Z,101781.66
2018-09-13T12:14:10.433Z,101780.36
2018-09-13T12:15:15.868Z,101779.05
2018-09-13T12:16:21.305Z,101778.45
2018-09-13T12:17:26.797Z,101774.02
2018-09-13T12:18:32.293Z,101773.42
2018-09-13T12:19:37.711Z,101769.42
2018-09-13T12:20:43.121Z,101774.50
2018-09-13T12:21:48.548Z,101771.47
2018-09-13T12:22:53.989Z,101771.73
2018-09-13T12:23:59.424Z,101769.16
2018-09-13T12:25:04.897Z,101768.19
2018-09-13T12:26:10.293Z,101767.72
2018-09-13T12:27:16.122Z,101767.52
2018-09-13T12:28:21.581Z,101774.58
2018-09-13T12:29:27.026Z,101768.44
2018-09-13T12:30:32.496Z,101769.98